createdAt,value
2022-08-17T00:01:31.445Z,100655.34
2022-08-17T00:04:19.058Z,100652.50
2022-08-17T00:06:46.065Z,100652.28
2022-08-17T00:09:18.925Z,100653.59
2022-08-17T00:12:35.476Z,100651.91
2022-08-17T00:14:36.014Z,100651.44
2022-08-17T00:17:04.570Z,100656.47
2022-08-17T00:19:32.603Z,100651.53
2022-08-17T00:22:33.912Z,100648.19
2022-08-17T00:24:47.091Z,100647.84
2022-08-17T00:27:13.536Z,100640.53
2022-08-17T00:29:40.077Z,100640.25
2022-08-17T00:33:15.072Z,100636.69
2022-08-17T00:34:55.371Z,100627.56
2022-08-17T00:37:21.798Z,100626.66
2022-08-17T00:39:48.239Z,100624.25
2022-08-17T00:42:18.169Z,100624.25
2022-08-17T00:44:45.331Z,100617.34
2022-08-17T00:47:11.801Z,100621.91
2022-08-17T00:49:38.227Z,100619.00
2022-08-17T00:52:15.284Z,100622.13
2022-08-17T00:54:44.802Z,100621.66
2022-08-17T00:57:18.040Z,100616.22
2022-08-17T00:59:51.111Z,100607.13
2022-08-17T01:02:34.404Z,100607.13
2022-08-17T01:05:10.616Z,100607.69
2022-08-17T01:07:37.965Z,100607.13
2022-08-17T01:10:07.520Z,100608.97
2022-08-17T01:12:54.192Z,100600.72
2022-08-17T01:15:20.615Z,100601.03
2022-08-17T01:17:47.810Z,100610.19
2022-08-17T01:20:14.352Z,100605.19
2022-08-17T01:22:40.905Z,100611.31
2022-08-17T01:25:08.840Z,100608.94
2022-08-17T01:27:36.927Z,100609.78
2022-08-17T01:30:57.465Z,100603.88
2022-08-17T01:32:54.988Z,100605.78
2022-08-17T01:35:21.416Z,100610.34
2022-08-17T01:37:47.946Z,100612.53
2022-08-17T01:40:33.490Z,100608.09
2022-08-17T01:43:19.945Z,100613.47
2022-08-17T01:45:48.847Z,100605.78
2022-08-17T01:48:34.338Z,100603.44
2022-08-17T01:51:01.226Z,100594.59
2022-08-17T01:53:36.641Z,100598.16
2022-08-17T01:56:09.124Z,100597.56
2022-08-17T01:58:36.817Z,100599.72
2022-08-17T02:01:05.556Z,100592.22
2022-08-17T02:03:34.500Z,100594.03
2022-08-17T02:06:01.947Z,100596.31
2022-08-17T02:08:36.989Z,100603.72
2022-08-17T02:11:11.557Z,100593.09
2022-08-17T02:13:38.686Z,100588.53
2022-08-17T02:16:05.520Z,100600.75
2022-08-17T02:18:31.931Z,100599.44
2022-08-17T02:20:58.574Z,100599.91
2022-08-17T02:23:28.662Z,100597.38
2022-08-17T02:25:57.579Z,100591.94
2022-08-17T02:28:23.986Z,100590.38
2022-08-17T02:31:02.028Z,100589.88
2022-08-17T02:33:42.775Z,100584.38
2022-08-17T02:36:12.573Z,100584.53
2022-08-17T02:38:40.649Z,100586.69
2022-08-17T02:41:07.318Z,100586.81
2022-08-17T02:43:34.876Z,100591.94
2022-08-17T02:46:01.326Z,100590.25
2022-08-17T02:48:31.238Z,100591.94
2022-08-17T02:50:59.114Z,100597.44
2022-08-17T02:53:25.911Z,100605.69
2022-08-17T02:55:52.576Z,100605.69
2022-08-17T02:58:34.326Z,100610.09
2022-08-17T03:01:06.287Z,100618.38
2022-08-17T03:03:33.058Z,100608.19
2022-08-17T03:05:59.946Z,100604.84
2022-08-17T03:08:26.347Z,100597.94
2022-08-17T03:10:53.221Z,100596.03
2022-08-17T03:13:20.036Z,100602.34
2022-08-17T03:15:47.961Z,100598.50
2022-08-17T03:18:24.308Z,100595.75
2022-08-17T03:20:52.479Z,100591.59
2022-08-17T03:23:18.912Z,100588.25
2022-08-17T03:25:53.139Z,100593.03
2022-08-17T03:28:20.829Z,100591.59
2022-08-17T03:30:47.269Z,100596.72
2022-08-17T03:33:14.668Z,100581.09
2022-08-17T03:35:42.052Z,100586.47
2022-08-17T03:38:10.440Z,100581.22
2022-08-17T03:40:56.997Z,100583.97
2022-08-17T03:43:24.151Z,100581.94
2022-08-17T03:46:26.843Z,100579.19
2022-08-17T03:49:13.879Z,100591.38
2022-08-17T03:51:59.323Z,100597.84
2022-08-17T03:54:44.450Z,100588.75
2022-08-17T03:57:11.692Z,100589.97
2022-08-17T03:59:39.126Z,100591.28
2022-08-17T04:02:09.638Z,100592.34
2022-08-17T04:04:37.124Z,100590.75
2022-08-17T04:07:04.074Z,100590.75
2022-08-17T04:09:30.473Z,100591.88
2022-08-17T04:11:57.294Z,100585.53
2022-08-17T04:14:31.095Z,100591.13
2022-08-17T04:16:57.520Z,100593.19
2022-08-17T04:19:23.922Z,100607.50
2022-08-17T04:21:50.350Z,100610.16
2022-08-17T04:24:16.782Z,100618.72
2022-08-17T04:26:52.657Z,100627.22
2022-08-17T04:29:21.327Z,100617.78
2022-08-17T04:31:48.049Z,100615.75
2022-08-17T04:34:14.563Z,100621.47
2022-08-17T04:36:47.980Z,100621.09
2022-08-17T04:39:16.808Z,100614.69
2022-08-17T04:42:01.597Z,100618.13
2022-08-17T04:44:37.559Z,100612.91
2022-08-17T04:47:04.540Z,100618.97
2022-08-17T04:49:30.998Z,100616.44
2022-08-17T04:52:00.086Z,100614.91
2022-08-17T04:54:29.107Z,100614.91
2022-08-17T04:56:55.515Z,100619.09
2022-08-17T04:59:22.587Z,100618.00
2022-08-17T05:01:51.543Z,100620.31
2022-08-17T05:04:33.788Z,100631.63
2022-08-17T05:07:01.121Z,100623.75
2022-08-17T05:09:27.520Z,100619.47
2022-08-17T05:11:55.317Z,100626.13
2022-08-17T05:14:32.895Z,100627.22
2022-08-17T05:17:01.217Z,100630.94
2022-08-17T05:19:28.612Z,100630.19
2022-08-17T05:21:55.017Z,100634.41
2022-08-17T05:24:38.315Z,100629.25
2022-08-17T05:27:06.549Z,100631.16
2022-08-17T05:29:35.179Z,100635.34
2022-08-17T05:32:38.805Z,100634.16
2022-08-17T05:34:59.881Z,100632.25
2022-08-17T05:37:26.311Z,100634.59
2022-08-17T05:39:54.103Z,100633.16
2022-08-17T05:42:21.199Z,100634.50
2022-08-17T05:44:47.638Z,100627.66
2022-08-17T05:47:14.180Z,100629.00
2022-08-17T05:49:40.749Z,100624.25
2022-08-17T05:52:13.209Z,100636.69
2022-08-17T05:55:10.505Z,100641.44
2022-08-17T05:57:47.502Z,100638.84
2022-08-17T06:00:37.177Z,100637.38
2022-08-17T06:03:18.848Z,100630.09
2022-08-17T06:06:19.415Z,100631.03
2022-08-17T06:09:01.424Z,100627.22
2022-08-17T06:11:44.443Z,100632.84
2022-08-17T06:14:38.700Z,100639.06
2022-08-17T06:17:11.126Z,100637.63
2022-08-17T06:19:59.682Z,100642.88
2022-08-17T06:22:36.267Z,100642.88
2022-08-17T06:25:10.204Z,100640.28
2022-08-17T06:27:54.085Z,100646.09
2022-08-17T06:30:27.085Z,100648.25
2022-08-17T06:32:59.552Z,100653.19
2022-08-17T06:35:37.096Z,100656.50
2022-08-17T06:38:37.607Z,100655.41
2022-08-17T06:41:37.794Z,100643.91
2022-08-17T06:44:49.876Z,100651.31
2022-08-17T06:47:28.863Z,100659.22
2022-08-17T06:50:17.256Z,100662.22
2022-08-17T06:53:11.079Z,100662.06
2022-08-17T06:56:06.639Z,100656.66
2022-08-17T06:58:35.759Z,100647.84
2022-08-17T07:01:12.958Z,100645.19
2022-08-17T07:04:11.999Z,100654.84
2022-08-17T07:06:51.092Z,100665.31
2022-08-17T07:09:26.433Z,100666.88
2022-08-17T07:11:57.706Z,100667.47
2022-08-17T07:14:51.655Z,100671.56
2022-08-17T07:17:20.401Z,100679.22
2022-08-17T07:19:49.725Z,100683.72
2022-08-17T07:22:27.841Z,100670.44
2022-08-17T07:24:58.410Z,100669.38
2022-08-17T07:27:28.509Z,100672.81
2022-08-17T07:30:10.359Z,100670.75
2022-08-17T07:32:45.180Z,100682.38
2022-08-17T07:35:15.477Z,100680.13
2022-08-17T07:37:55.635Z,100674.56
2022-08-17T07:40:24.642Z,100674.38
2022-08-17T07:43:04.966Z,100677.31
2022-08-17T07:45:50.734Z,100684.34
2022-08-17T07:48:22.013Z,100676.38
2022-08-17T07:50:50.716Z,100675.78
2022-08-17T07:53:19.854Z,100682.09
2022-08-17T07:55:46.553Z,100687.81
2022-08-17T07:58:19.368Z,100700.97
2022-08-17T08:00:46.686Z,100707.47
2022-08-17T08:03:20.307Z,100691.22
2022-08-17T08:05:56.710Z,100702.31
2022-08-17T08:08:35.318Z,100707.97
2022-08-17T08:11:09.584Z,100706.19
2022-08-17T08:13:42.540Z,100715.13
2022-08-17T08:16:19.978Z,100727.50
2022-08-17T08:18:55.676Z,100737.03
2022-08-17T08:21:48.713Z,100720.06
2022-08-17T08:24:36.641Z,100720.31
2022-08-17T08:27:42.276Z,100709.44
2022-08-17T08:30:14.368Z,100698.66
2022-08-17T08:33:12.507Z,100703.38
2022-08-17T08:35:49.566Z,100701.31
2022-08-17T08:38:15.895Z,100712.72
2022-08-17T08:41:10.650Z,100711.38
2022-08-17T08:43:50.854Z,100710.88
2022-08-17T08:46:36.438Z,100724.75
2022-08-17T08:49:33.861Z,100740.38
2022-08-17T08:52:22.778Z,100755.28
2022-08-17T08:54:59.562Z,100782.72
2022-08-17T08:57:37.975Z,100809.50
2022-08-17T09:00:20.260Z,100830.72
2022-08-17T09:03:06.181Z,100849.88
2022-08-17T09:05:52.795Z,100848.66
2022-08-17T09:08:44.185Z,100832.16
2022-08-17T09:12:01.070Z,100787.63
2022-08-17T09:15:17.663Z,100703.16
2022-08-17T09:19:01.332Z,100688.91
2022-08-17T09:21:01.320Z,100665.94
2022-08-17T09:23:39.309Z,100665.31
2022-08-17T09:26:24.168Z,100663.75
2022-08-17T09:28:53.118Z,100661.59
2022-08-17T09:31:26.801Z,100664.94
2022-08-17T09:33:59.010Z,100666.41
2022-08-17T09:36:31.188Z,100667.38
2022-08-17T09:39:02.674Z,100667.44
2022-08-17T09:41:49.177Z,100673.59
2022-08-17T09:44:23.180Z,100687.25
2022-08-17T09:47:01.649Z,100679.31
2022-08-17T09:49:36.881Z,100679.34
2022-08-17T09:52:22.952Z,100686.81
2022-08-17T09:54:51.611Z,100692.13
2022-08-17T09:57:32.734Z,100703.34
2022-08-17T10:00:28.525Z,100702.28
2022-08-17T10:03:30.274Z,100707.03
2022-08-17T10:06:02.700Z,100718.28
2022-08-17T10:08:57.243Z,100723.41
2022-08-17T10:11:57.843Z,100722.16
2022-08-17T10:14:37.775Z,100735.44
2022-08-17T10:17:13.261Z,100739.72
2022-08-17T10:20:03.062Z,100748.94
2022-08-17T10:22:56.302Z,100753.75
2022-08-17T10:25:54.667Z,100763.72
2022-08-17T10:28:30.304Z,100762.72
2022-08-17T10:31:31.089Z,100762.69
2022-08-17T10:34:06.597Z,100753.56
2022-08-17T10:36:54.918Z,100766.88
2022-08-17T10:39:36.624Z,100786.00
2022-08-17T10:42:30.400Z,100800.47
2022-08-17T10:45:05.303Z,100811.44
2022-08-17T10:48:05.341Z,100825.19
2022-08-17T10:50:57.644Z,100828.38
2022-08-17T10:53:48.409Z,100829.50
2022-08-17T10:56:15.453Z,100830.09
2022-08-17T10:59:00.457Z,100838.63
2022-08-17T11:01:33.006Z,100839.06
2022-08-17T11:04:19.587Z,100832.09
2022-08-17T11:07:02.151Z,100821.72
2022-08-17T11:10:03.386Z,100819.16
2022-08-17T11:13:03.865Z,100819.94
2022-08-17T11:15:52.421Z,100815.69
2022-08-17T11:18:29.121Z,100827.59
2022-08-17T11:21:43.236Z,100818.50
2022-08-17T11:24:24.111Z,100819.06
2022-08-17T11:27:18.886Z,100812.94
2022-08-17T11:30:01.513Z,100815.16
2022-08-17T11:32:37.248Z,100819.59
2022-08-17T11:35:21.893Z,100813.16
2022-08-17T11:38:16.379Z,100807.72
2022-08-17T11:41:15.288Z,100793.13
2022-08-17T11:44:02.058Z,100800.25
2022-08-17T11:46:57.248Z,100812.94
2022-08-17T11:50:11.634Z,100816.56
2022-08-17T11:52:42.372Z,100814.34
2022-08-17T11:55:39.330Z,100816.31
2022-08-17T11:58:37.375Z,100807.22
2022-08-17T12:01:13.633Z,100793.09
2022-08-17T12:03:54.118Z,100783.28
2022-08-17T12:06:24.687Z,100802.09
2022-08-17T12:09:02.326Z,100821.78
2022-08-17T12:11:55.575Z,100817.09
2022-08-17T12:14:51.358Z,100809.81
2022-08-17T12:17:26.528Z,100806.31
2022-08-17T12:20:15.469Z,100808.31
2022-08-17T12:22:56.292Z,100802.56
2022-08-17T12:25:46.445Z,100803.81
2022-08-17T12:28:31.987Z,100809.63
2022-08-17T12:31:02.729Z,100805.28
2022-08-17T12:33:29.619Z,100802.31
2022-08-17T12:36:05.558Z,100802.03
2022-08-17T12:38:37.829Z,100813.31
2022-08-17T12:41:27.104Z,100817.19
2022-08-17T12:44:02.020Z,100825.03
2022-08-17T12:46:33.498Z,100820.69
2022-08-17T12:49:35.503Z,100827.38
2022-08-17T12:52:19.785Z,100827.72
2022-08-17T12:55:06.910Z,100824.94
2022-08-17T12:57:39.694Z,100829.53
2022-08-17T13:00:21.766Z,100827.81
2022-08-17T13:02:57.793Z,100821.78
2022-08-17T13:05:28.129Z,100812.56
2022-08-17T13:07:56.520Z,100820.50
2022-08-17T13:10:35.288Z,100830.72
2022-08-17T13:13:05.377Z,100825.34
2022-08-17T13:15:44.839Z,100830.63
2022-08-17T13:18:38.798Z,100829.34
2022-08-17T13:21:11.240Z,100824.66
2022-08-17T13:23:38.032Z,100831.50
2022-08-17T13:26:15.823Z,100833.41
2022-08-17T13:28:49.715Z,100831.91
2022-08-17T13:31:28.260Z,100832.00
2022-08-17T13:34:13.489Z,100825.97
2022-08-17T13:36:41.298Z,100820.09
2022-08-17T13:39:18.687Z,100818.94
2022-08-17T13:41:46.485Z,100824.31
2022-08-17T13:44:37.119Z,100815.53
2022-08-17T13:47:17.499Z,100813.06
2022-08-17T13:49:48.870Z,100812.22
2022-08-17T13:52:38.019Z,100808.34
2022-08-17T13:55:14.902Z,100812.78
2022-08-17T13:57:46.584Z,100810.00
2022-08-17T14:00:34.240Z,100808.34
2022-08-17T14:03:03.272Z,100810.03
2022-08-17T14:05:31.100Z,100809.03
2022-08-17T14:08:06.913Z,100801.63
2022-08-17T14:10:36.309Z,100805.19
2022-08-17T14:13:03.361Z,100796.38
2022-08-17T14:15:55.078Z,100797.13
2022-08-17T14:18:18.021Z,100793.50
2022-08-17T14:21:02.230Z,100790.81
2022-08-17T14:23:32.863Z,100790.47
2022-08-17T14:25:59.829Z,100777.50
2022-08-17T14:28:26.531Z,100772.78
2022-08-17T14:30:54.446Z,100775.13
2022-08-17T14:33:24.618Z,100775.19
2022-08-17T14:35:53.458Z,100775.28
2022-08-17T14:38:20.731Z,100761.38
2022-08-17T14:40:47.964Z,100754.50
2022-08-17T14:43:15.863Z,100758.94
2022-08-17T14:45:42.992Z,100751.28
2022-08-17T14:48:10.308Z,100752.88
2022-08-17T14:50:40.881Z,100756.41
2022-08-17T14:53:09.815Z,100750.69
2022-08-17T14:55:39.663Z,100750.00
2022-08-17T14:58:07.426Z,100751.78
2022-08-17T15:00:34.176Z,100748.34
2022-08-17T15:03:01.496Z,100743.56
2022-08-17T15:05:31.961Z,100749.19
2022-08-17T15:07:59.033Z,100746.34
2022-08-17T15:10:26.069Z,100751.31
2022-08-17T15:12:52.545Z,100755.34
2022-08-17T15:15:19.089Z,100748.84
2022-08-17T15:17:46.156Z,100743.81
2022-08-17T15:20:15.950Z,100765.47
2022-08-17T15:22:43.667Z,100757.94
2022-08-17T15:25:12.181Z,100756.19
2022-08-17T15:27:39.498Z,100764.81
2022-08-17T15:30:07.110Z,100767.28
2022-08-17T15:32:38.163Z,100769.47
2022-08-17T15:35:08.795Z,100770.81
2022-08-17T15:37:35.370Z,100775.00
2022-08-17T15:40:02.010Z,100774.06
2022-08-17T15:42:29.269Z,100769.66
2022-08-17T15:44:55.905Z,100770.13
2022-08-17T15:47:23.117Z,100769.50
2022-08-17T15:49:50.641Z,100775.28
2022-08-17T15:52:23.222Z,100781.22
2022-08-17T15:54:58.219Z,100784.13
2022-08-17T15:57:25.775Z,100778.88
2022-08-17T15:59:58.509Z,100786.78
2022-08-17T16:03:14.193Z,100783.59
2022-08-17T16:05:22.002Z,100778.28
2022-08-17T16:07:51.473Z,100765.56
2022-08-17T16:10:19.278Z,100774.25
2022-08-17T16:12:47.657Z,100768.22
2022-08-17T16:15:15.105Z,100770.97
2022-08-17T16:17:41.708Z,100767.38
2022-08-17T16:20:10.410Z,100764.97
2022-08-17T16:22:48.801Z,100763.63
2022-08-17T16:25:20.891Z,100768.16
2022-08-17T16:27:50.404Z,100768.91
2022-08-17T16:30:17.863Z,100772.16
2022-08-17T16:32:45.341Z,100771.53
2022-08-17T16:35:16.111Z,100770.09
2022-08-17T16:37:45.549Z,100776.09
2022-08-17T16:40:14.229Z,100766.47
2022-08-17T16:42:42.775Z,100771.34
2022-08-17T16:45:14.583Z,100774.28
2022-08-17T16:47:41.917Z,100776.75
2022-08-17T16:50:11.647Z,100784.38
2022-08-17T16:52:40.511Z,100789.03
2022-08-17T16:55:09.555Z,100781.63
2022-08-17T16:57:50.412Z,100784.47
2022-08-17T17:00:19.227Z,100779.06
2022-08-17T17:02:47.571Z,100779.53
2022-08-17T17:05:42.310Z,100780.03
2022-08-17T17:08:13.148Z,100784.63
2022-08-17T17:10:47.529Z,100787.78
2022-08-17T17:13:25.181Z,100784.38
2022-08-17T17:16:14.372Z,100786.34
2022-08-17T17:18:49.550Z,100781.16
2022-08-17T17:21:23.676Z,100789.31
2022-08-17T17:23:57.000Z,100792.56
2022-08-17T17:26:45.496Z,100782.22
2022-08-17T17:29:58.044Z,100793.41
2022-08-17T17:32:55.740Z,100803.19
2022-08-17T17:35:31.871Z,100798.84
2022-08-17T17:38:04.265Z,100802.34
2022-08-17T17:40:44.292Z,100812.56
2022-08-17T17:43:37.550Z,100813.97
2022-08-17T17:46:27.281Z,100818.78
2022-08-17T17:48:56.513Z,100816.50
2022-08-17T17:52:06.567Z,100826.16
2022-08-17T17:54:53.944Z,100821.41
2022-08-17T17:57:58.667Z,100819.13
2022-08-17T18:00:34.106Z,100813.50
2022-08-17T18:03:25.147Z,100806.63
2022-08-17T18:06:01.201Z,100813.88
2022-08-17T18:09:19.369Z,100815.22
2022-08-17T18:12:19.865Z,100816.44
2022-08-17T18:15:07.545Z,100829.97
2022-08-17T18:17:36.216Z,100834.56
2022-08-17T18:20:06.850Z,100832.41
2022-08-17T18:22:33.277Z,100833.63
2022-08-17T18:24:59.828Z,100828.13
2022-08-17T18:27:38.275Z,100830.69
2022-08-17T18:30:10.767Z,100826.56
2022-08-17T18:32:42.422Z,100834.69
2022-08-17T18:35:08.763Z,100839.69
2022-08-17T18:37:49.029Z,100845.22
2022-08-17T18:40:19.388Z,100848.63
2022-08-17T18:43:08.837Z,100849.00
2022-08-17T18:45:38.450Z,100839.69
2022-08-17T18:48:16.498Z,100845.88
2022-08-17T18:50:42.945Z,100842.97
2022-08-17T18:53:36.545Z,100845.34
2022-08-17T18:56:27.932Z,100844.28
2022-08-17T18:59:23.085Z,100842.34
2022-08-17T19:02:10.009Z,100838.84
2022-08-17T19:05:00.339Z,100840.00
2022-08-17T19:07:33.018Z,100833.91
2022-08-17T19:10:08.994Z,100837.28
2022-08-17T19:12:43.846Z,100835.84
2022-08-17T19:15:14.719Z,100838.50
2022-08-17T19:17:53.337Z,100849.56
2022-08-17T19:20:26.540Z,100846.84
2022-08-17T19:23:12.644Z,100863.13
2022-08-17T19:25:46.148Z,100878.34
2022-08-17T19:28:29.717Z,100890.06
2022-08-17T19:31:03.996Z,100892.13
2022-08-17T19:33:32.060Z,100899.53
2022-08-17T19:36:18.752Z,100902.03
2022-08-17T19:39:10.009Z,100898.09
2022-08-17T19:42:03.119Z,100899.47
2022-08-17T19:44:40.374Z,100907.63
2022-08-17T19:47:36.650Z,100898.91
2022-08-17T19:50:18.899Z,100899.16
2022-08-17T19:52:59.149Z,100894.59
2022-08-17T19:55:32.001Z,100900.91
2022-08-17T19:58:21.457Z,100900.00
2022-08-17T20:00:51.684Z,100890.47
2022-08-17T20:03:30.211Z,100895.34
2022-08-17T20:06:15.277Z,100900.13
2022-08-17T20:08:53.627Z,100906.69
2022-08-17T20:11:37.535Z,100909.28
2022-08-17T20:14:13.081Z,100903.88
2022-08-17T20:16:39.491Z,100903.94
2022-08-17T20:19:25.017Z,100890.91
2022-08-17T20:22:03.250Z,100890.97
2022-08-17T20:24:50.947Z,100886.25
2022-08-17T20:27:31.958Z,100882.88
2022-08-17T20:30:06.957Z,100882.13
2022-08-17T20:32:52.586Z,100875.44
2022-08-17T20:35:28.323Z,100872.03
2022-08-17T20:37:59.154Z,100872.69
2022-08-17T20:40:38.339Z,100869.69
2022-08-17T20:43:29.801Z,100870.00
2022-08-17T20:46:15.578Z,100878.06
2022-08-17T20:48:46.116Z,100876.22
2022-08-17T20:51:22.897Z,100877.22
2022-08-17T20:53:49.337Z,100869.56
2022-08-17T20:56:46.877Z,100865.31
2022-08-17T20:59:25.668Z,100877.78
2022-08-17T21:02:18.769Z,100892.75
2022-08-17T21:04:52.761Z,100893.34
2022-08-17T21:07:30.298Z,100888.31
2022-08-17T21:10:17.722Z,100877.75
2022-08-17T21:13:06.004Z,100876.09
2022-08-17T21:15:43.521Z,100882.97
2022-08-17T21:18:44.134Z,100879.22
2022-08-17T21:21:17.706Z,100875.44
2022-08-17T21:24:16.367Z,100879.66
2022-08-17T21:27:17.780Z,100890.34
2022-08-17T21:30:10.267Z,100900.44
2022-08-17T21:32:41.973Z,100904.03
2022-08-17T21:35:12.365Z,100896.25
2022-08-17T21:37:53.119Z,100900.00
2022-08-17T21:40:25.810Z,100909.28
2022-08-17T21:43:00.281Z,100910.97
2022-08-17T21:45:30.439Z,100916.44
2022-08-17T21:48:19.559Z,100921.38
2022-08-17T21:50:57.910Z,100909.97
2022-08-17T21:53:53.932Z,100914.28
2022-08-17T21:56:32.003Z,100909.72
2022-08-17T21:59:00.673Z,100917.03
2022-08-17T22:01:57.557Z,100916.91
2022-08-17T22:04:28.972Z,100913.72
2022-08-17T22:06:58.085Z,100914.16
2022-08-17T22:09:28.589Z,100922.53
2022-08-17T22:12:07.389Z,100921.00
2022-08-17T22:14:53.044Z,100921.78
2022-08-17T22:17:35.489Z,100927.31
2022-08-17T22:20:06.922Z,100928.78
2022-08-17T22:22:57.167Z,100927.56
2022-08-17T22:25:26.294Z,100928.56
2022-08-17T22:28:00.213Z,100923.88
2022-08-17T22:30:34.853Z,100929.47
2022-08-17T22:33:31.276Z,100937.09
2022-08-17T22:36:33.731Z,100945.31
2022-08-17T22:39:04.024Z,100950.41
2022-08-17T22:41:48.074Z,100950.41
2022-08-17T22:44:26.111Z,100944.03
2022-08-17T22:46:55.637Z,100948.88
2022-08-17T22:49:29.178Z,100946.22
2022-08-17T22:52:16.198Z,100949.56
2022-08-17T22:55:08.320Z,100940.28
2022-08-17T22:57:56.555Z,100947.34
2022-08-17T23:00:41.084Z,100945.28
2022-08-17T23:03:12.695Z,100938.88
2022-08-17T23:05:43.493Z,100939.25
2022-08-17T23:08:11.527Z,100942.06
2022-08-17T23:10:41.225Z,100946.72
2022-08-17T23:13:12.022Z,100945.88
2022-08-17T23:15:40.606Z,100950.91
2022-08-17T23:18:07.411Z,100947.38
2022-08-17T23:20:36.313Z,100950.34
2022-08-17T23:23:06.733Z,100942.97
2022-08-17T23:25:35.029Z,100938.59
2022-08-17T23:28:04.301Z,100937.16
2022-08-17T23:30:33.078Z,100942.69
2022-08-17T23:33:14.252Z,100942.44
2022-08-17T23:35:41.125Z,100945.91
2022-08-17T23:38:09.742Z,100949.91
2022-08-17T23:40:37.677Z,100948.03
2022-08-17T23:43:15.389Z,100945.09
2022-08-17T23:45:53.946Z,100945.22
2022-08-17T23:48:28.545Z,100947.09
2022-08-17T23:51:04.721Z,100937.22
2022-08-17T23:53:34.442Z,100938.59
2022-08-17T23:56:09.296Z,100949.31
2022-08-17T23:58:38.350Z,100952.34
